createdAt,value
2018-07-16T00:02:25.617Z,1.60
2018-07-16T00:04:53.095Z,1.00
2018-07-16T00:07:20.518Z,1.00
2018-07-16T00:09:48.018Z,2.00
2018-07-16T00:12:15.518Z,0.00
2018-07-16T00:14:42.995Z,1.00
2018-07-16T00:17:10.529Z,1.00
2018-07-16T00:19:38.006Z,2.00
2018-07-16T00:22:05.533Z,2.00
2018-07-16T00:24:32.945Z,2.00
2018-07-16T00:27:00.446Z,1.60
2018-07-16T00:29:27.857Z,2.00
2018-07-16T00:31:56.335Z,1.00
2018-07-16T00:34:24.138Z,1.00
2018-07-16T00:36:51.651Z,1.20
2018-07-16T00:39:19.130Z,1.00
2018-07-16T00:41:46.618Z,1.00
2018-07-16T00:44:14.154Z,1.00
2018-07-16T00:46:41.591Z,1.00
2018-07-16T00:49:09.634Z,1.00
2018-07-16T00:51:37.006Z,1.80
2018-07-16T00:54:04.473Z,1.00
2018-07-16T00:56:31.967Z,1.00
2018-07-16T00:58:59.411Z,1.00
2018-07-16T01:01:26.834Z,1.20
2018-07-16T01:03:54.333Z,1.00
2018-07-16T01:06:21.831Z,1.00
2018-07-16T01:08:49.202Z,1.00
2018-07-16T01:11:16.666Z,1.00
2018-07-16T01:13:44.170Z,1.20
2018-07-16T01:16:11.558Z,1.00
2018-07-16T01:18:39.034Z,1.00
2018-07-16T01:21:06.578Z,1.00
2018-07-16T01:23:33.945Z,2.00
2018-07-16T01:26:01.386Z,2.60
2018-07-16T01:28:28.846Z,2.00
2018-07-16T01:30:56.299Z,1.60
2018-07-16T01:33:24.774Z,1.00
2018-07-16T01:35:52.254Z,1.00
2018-07-16T01:38:19.693Z,1.00
2018-07-16T01:40:47.177Z,1.00
2018-07-16T01:43:16.348Z,0.00
2018-07-16T01:45:43.755Z,0.40
2018-07-16T01:48:11.190Z,1.00
2018-07-16T01:50:38.646Z,0.80
2018-07-16T01:53:06.126Z,2.00
2018-07-16T01:55:33.662Z,1.00
2018-07-16T01:58:01.683Z,1.00
2018-07-16T02:00:29.223Z,2.00
2018-07-16T02:02:56.646Z,1.00
2018-07-16T02:05:24.143Z,1.40
2018-07-16T02:07:51.588Z,1.00
2018-07-16T02:10:19.033Z,0.80
2018-07-16T02:12:46.479Z,1.80
2018-07-16T02:15:13.942Z,1.60
2018-07-16T02:17:41.421Z,1.40
2018-07-16T02:20:08.861Z,1.00
2018-07-16T02:22:36.328Z,1.00
2018-07-16T02:25:03.899Z,1.00
2018-07-16T02:27:36.774Z,1.80
2018-07-16T02:31:07.482Z,1.20
2018-07-16T02:33:34.976Z,1.40
2018-07-16T02:36:02.438Z,1.80
2018-07-16T02:38:29.856Z,1.40
2018-07-16T02:40:57.304Z,1.00
2018-07-16T02:43:24.775Z,1.80
2018-07-16T02:45:52.232Z,1.00
2018-07-16T02:48:19.693Z,1.00
2018-07-16T02:51:50.154Z,2.00
2018-07-16T02:54:17.694Z,1.00
2018-07-16T02:56:45.174Z,1.40
2018-07-16T02:59:12.629Z,1.00
2018-07-16T03:01:40.111Z,2.00
2018-07-16T03:04:07.536Z,1.00
2018-07-16T03:08:01.174Z,2.00
2018-07-16T03:10:28.667Z,0.80
2018-07-16T03:12:56.102Z,2.00
2018-07-16T03:15:24.178Z,1.40
2018-07-16T03:17:51.705Z,1.60
2018-07-16T03:20:19.612Z,1.00
2018-07-16T03:22:46.965Z,1.60
2018-07-16T03:25:14.405Z,2.00
2018-07-16T03:27:41.900Z,2.20
2018-07-16T03:30:09.342Z,2.00
2018-07-16T03:32:36.769Z,1.80
2018-07-16T03:35:04.280Z,2.00
2018-07-16T03:37:31.677Z,1.60
2018-07-16T03:39:59.178Z,1.00
2018-07-16T03:42:26.617Z,1.00
2018-07-16T03:44:54.106Z,2.00
2018-07-16T03:47:22.682Z,1.00
2018-07-16T03:50:02.548Z,1.00
2018-07-16T03:52:29.965Z,2.00
2018-07-16T03:55:02.007Z,1.00
2018-07-16T03:57:34.753Z,2.00
2018-07-16T04:02:44.471Z,2.00
2018-07-16T04:05:11.876Z,2.00
2018-07-16T04:07:41.024Z,1.00
2018-07-16T04:10:16.437Z,1.80
2018-07-16T04:12:44.880Z,1.20
2018-07-16T04:17:50.352Z,1.40
2018-07-16T04:20:18.445Z,1.00
2018-07-16T04:22:47.150Z,1.00
2018-07-16T04:25:15.070Z,1.80
2018-07-16T04:27:42.530Z,1.20
2018-07-16T04:30:13.626Z,2.00
2018-07-16T04:45:52.064Z,1.00
2018-07-16T04:54:14.702Z,0.80
2018-07-16T04:56:42.501Z,2.00
2018-07-16T04:59:10.962Z,1.40
2018-07-16T05:01:38.422Z,1.80
2018-07-16T05:04:05.959Z,1.60
2018-07-16T05:06:33.456Z,2.00
2018-07-16T05:09:00.849Z,1.40
2018-07-16T05:11:28.265Z,1.00
2018-07-16T05:13:55.722Z,2.00
2018-07-16T05:16:23.215Z,1.80
2018-07-16T05:18:50.623Z,1.00
2018-07-16T05:21:18.101Z,1.80
2018-07-16T05:23:45.583Z,1.00
2018-07-16T05:26:13.015Z,2.00
2018-07-16T05:28:40.475Z,1.00
2018-07-16T05:31:07.958Z,2.00
2018-07-16T05:33:35.391Z,2.00
2018-07-16T05:36:02.825Z,2.20
2018-07-16T05:38:30.346Z,2.00
2018-07-16T05:40:58.003Z,2.00
2018-07-16T05:43:25.439Z,2.00
2018-07-16T05:45:52.853Z,1.80
2018-07-16T05:48:20.398Z,2.00
2018-07-16T05:50:47.842Z,2.00
2018-07-16T05:53:15.232Z,1.00
2018-07-16T05:55:42.673Z,2.00
2018-07-16T05:58:10.176Z,2.00
2018-07-16T06:00:37.614Z,1.20
2018-07-16T06:03:05.173Z,1.00
2018-07-16T06:05:32.541Z,1.40
2018-07-16T06:08:00.027Z,1.00
2018-07-16T06:10:27.495Z,2.00
2018-07-16T06:12:56.597Z,1.80
2018-07-16T06:15:24.026Z,2.00
2018-07-16T06:17:51.515Z,2.00
2018-07-16T06:20:19.409Z,2.00
2018-07-16T06:22:46.808Z,2.00
2018-07-16T06:25:15.270Z,2.00
2018-07-16T06:27:42.749Z,2.00
2018-07-16T06:30:10.154Z,2.00
2018-07-16T06:32:37.924Z,2.40
2018-07-16T06:35:05.321Z,2.40
2018-07-16T06:37:32.742Z,3.00
2018-07-16T06:40:00.332Z,2.00
2018-07-16T06:42:27.637Z,2.00
2018-07-16T06:44:55.121Z,2.40
2018-07-16T06:47:22.558Z,3.00
2018-07-16T06:49:51.059Z,2.60
2018-07-16T06:52:19.517Z,3.00
2018-07-16T06:54:47.013Z,3.80
2018-07-16T06:57:14.433Z,3.00
2018-07-16T06:59:44.957Z,3.00
2018-07-16T07:02:12.454Z,3.00
2018-07-16T07:04:39.885Z,3.80
2018-07-16T07:07:07.419Z,5.00
2018-07-16T07:10:59.394Z,4.60
2018-07-16T07:13:26.845Z,5.00
2018-07-16T07:15:55.357Z,3.00
2018-07-16T07:18:22.772Z,5.80
2018-07-16T07:20:50.282Z,4.60
2018-07-16T07:23:17.695Z,5.00
2018-07-16T07:25:45.688Z,4.20
2018-07-16T07:28:13.261Z,5.00
2018-07-16T07:30:40.731Z,3.00
2018-07-16T07:33:08.250Z,4.20
2018-07-16T07:35:37.677Z,5.60
2018-07-16T07:38:05.099Z,3.00
2018-07-16T07:40:32.553Z,3.40
2018-07-16T07:42:59.993Z,5.00
2018-07-16T07:45:27.518Z,5.80
2018-07-16T07:47:55.005Z,3.40
2018-07-16T07:50:27.107Z,4.60
2018-07-16T07:52:54.620Z,6.00
2018-07-16T07:55:22.480Z,5.20
2018-07-16T07:57:49.541Z,5.40
2018-07-16T08:00:16.967Z,6.00
2018-07-16T08:02:48.081Z,5.20
2018-07-16T08:05:15.594Z,5.80
2018-07-16T08:07:42.997Z,5.60
2018-07-16T08:10:13.866Z,6.40
2018-07-16T08:12:41.479Z,5.40
2018-07-16T08:15:08.842Z,5.20
2018-07-16T08:17:36.401Z,6.00
2018-07-16T08:20:04.385Z,5.60
2018-07-16T08:22:39.092Z,6.00
2018-07-16T08:25:06.542Z,6.00
2018-07-16T08:27:33.941Z,5.60
2018-07-16T08:30:01.475Z,5.00
2018-07-16T08:32:28.849Z,5.00
2018-07-16T08:34:56.276Z,5.20
2018-07-16T08:37:23.806Z,5.60
2018-07-16T08:39:51.202Z,6.40
2018-07-16T08:42:18.621Z,6.00
2018-07-16T08:44:46.111Z,5.60
2018-07-16T08:47:13.544Z,5.40
2018-07-16T08:49:41.020Z,4.60
2018-07-16T08:52:08.450Z,5.60
2018-07-16T08:54:35.956Z,5.00
2018-07-16T08:57:03.375Z,3.80
2018-07-16T08:59:30.834Z,5.00
2018-07-16T09:01:58.313Z,6.00
2018-07-16T09:04:25.807Z,5.00
2018-07-16T09:06:53.206Z,3.40
2018-07-16T09:09:20.689Z,4.20
2018-07-16T09:11:48.161Z,6.00
2018-07-16T09:14:15.579Z,5.80
2018-07-16T09:16:43.057Z,6.00
2018-07-16T09:19:11.514Z,5.00
2018-07-16T09:21:39.926Z,3.00
2018-07-16T09:24:07.477Z,6.00
2018-07-16T09:26:34.910Z,2.00
2018-07-16T09:29:02.389Z,5.20
2018-07-16T09:31:29.849Z,6.00
2018-07-16T09:33:57.278Z,6.60
2018-07-16T09:36:24.742Z,5.80
2018-07-16T09:38:52.266Z,6.20
2018-07-16T09:41:19.708Z,5.40
2018-07-16T09:43:47.121Z,6.00
2018-07-16T09:46:14.597Z,5.00
2018-07-16T09:48:42.030Z,6.40
2018-07-16T09:51:09.519Z,5.00
2018-07-16T09:53:36.929Z,6.00
2018-07-16T09:56:04.655Z,6.00
2018-07-16T09:58:32.064Z,4.60
2018-07-16T10:00:59.566Z,5.00
2018-07-16T10:03:26.970Z,5.20
2018-07-16T10:05:54.521Z,5.60
2018-07-16T10:08:21.928Z,5.00
2018-07-16T10:10:49.345Z,5.00
2018-07-16T10:13:16.818Z,5.00
2018-07-16T10:15:44.281Z,4.20
2018-07-16T10:18:11.717Z,5.20
2018-07-16T10:20:39.246Z,5.20
2018-07-16T10:23:06.651Z,5.20
2018-07-16T10:25:34.100Z,5.40
2018-07-16T10:28:03.610Z,5.00
2018-07-16T10:30:31.957Z,4.20
2018-07-16T10:32:59.349Z,5.00
2018-07-16T10:35:26.798Z,4.60
2018-07-16T10:37:54.236Z,5.40
2018-07-16T10:40:21.731Z,5.20
2018-07-16T10:42:49.165Z,6.00
2018-07-16T10:45:16.647Z,5.60
2018-07-16T10:47:44.346Z,6.00
2018-07-16T10:50:11.737Z,5.00
2018-07-16T10:52:39.210Z,5.40
2018-07-16T10:55:06.720Z,5.40
2018-07-16T10:57:34.126Z,6.00
2018-07-16T11:00:01.549Z,5.00
2018-07-16T11:02:29.039Z,6.00
2018-07-16T11:04:56.519Z,6.00
2018-07-16T11:07:23.950Z,5.20
2018-07-16T11:09:51.393Z,5.00
2018-07-16T11:12:18.865Z,4.60
2018-07-16T11:14:46.289Z,5.40
2018-07-16T11:17:13.763Z,3.00
2018-07-16T11:19:41.268Z,5.00
2018-07-16T11:22:08.683Z,5.00
2018-07-16T11:24:36.180Z,5.60
2018-07-16T11:27:03.801Z,4.80
2018-07-16T11:29:31.298Z,5.20
2018-07-16T11:31:58.721Z,4.80
2018-07-16T11:34:26.206Z,5.80
2018-07-16T11:36:53.894Z,4.80
2018-07-16T11:39:21.289Z,5.20
2018-07-16T11:41:48.753Z,5.40
2018-07-16T11:44:17.062Z,5.20
2018-07-16T11:46:44.497Z,6.00
2018-07-16T11:49:11.933Z,6.00
2018-07-16T11:51:39.419Z,4.20
2018-07-16T11:54:06.858Z,6.20
2018-07-16T11:56:34.957Z,5.60
2018-07-16T11:59:02.434Z,5.80
2018-07-16T12:01:29.861Z,5.60
2018-07-16T12:03:57.281Z,6.00
2018-07-16T12:06:24.758Z,5.20
2018-07-16T12:08:52.723Z,5.40
2018-07-16T12:11:20.118Z,5.00
2018-07-16T12:13:47.551Z,6.00
2018-07-16T12:16:15.029Z,5.60
2018-07-16T12:18:44.154Z,6.80
2018-07-16T12:21:11.553Z,3.40
2018-07-16T12:23:39.002Z,6.00
2018-07-16T12:26:06.474Z,4.60
2018-07-16T12:28:33.925Z,6.00
2018-07-16T12:31:01.484Z,5.00
2018-07-16T12:33:28.956Z,3.80
2018-07-16T12:35:56.617Z,5.40
2018-07-16T12:38:24.177Z,5.00
2018-07-16T12:40:51.630Z,6.60
2018-07-16T12:43:19.066Z,5.00
2018-07-16T12:45:46.513Z,5.00
2018-07-16T12:48:14.054Z,5.00
2018-07-16T12:50:41.441Z,6.80
2018-07-16T12:53:08.900Z,5.20
2018-07-16T12:55:36.637Z,5.80
2018-07-16T12:58:04.096Z,6.00
2018-07-16T13:00:31.517Z,5.00
2018-07-16T13:02:59.051Z,5.00
2018-07-16T13:05:26.410Z,5.80
2018-07-16T13:07:53.849Z,5.00
2018-07-16T13:10:21.293Z,5.60
2018-07-16T13:12:48.787Z,5.00
2018-07-16T13:15:16.203Z,5.80
2018-07-16T13:17:43.693Z,6.00
2018-07-16T13:20:11.153Z,5.40
2018-07-16T13:22:39.108Z,4.20
2018-07-16T13:25:06.488Z,5.00
2018-07-16T13:27:33.902Z,6.00
2018-07-16T13:30:01.486Z,4.20
2018-07-16T13:32:28.908Z,6.80
2018-07-16T13:34:56.737Z,5.60
2018-07-16T13:38:28.274Z,4.20
2018-07-16T13:40:55.829Z,4.60
2018-07-16T13:43:23.161Z,3.40
2018-07-16T13:45:50.616Z,3.20
2018-07-16T13:48:18.091Z,5.60
2018-07-16T13:50:45.584Z,6.00
2018-07-16T13:53:13.059Z,4.40
2018-07-16T13:55:40.474Z,5.60
2018-07-16T13:58:07.942Z,4.20
2018-07-16T14:00:35.385Z,6.40
2018-07-16T14:03:02.846Z,4.20
2018-07-16T14:05:30.281Z,4.20
2018-07-16T14:07:57.760Z,4.60
2018-07-16T14:10:25.199Z,3.60
2018-07-16T14:12:53.198Z,3.80
2018-07-16T14:15:21.087Z,4.40
2018-07-16T14:17:48.602Z,4.60
2018-07-16T14:20:16.061Z,4.20
2018-07-16T14:22:43.570Z,3.20
2018-07-16T14:25:10.972Z,4.60
2018-07-16T14:27:38.522Z,4.20
2018-07-16T14:30:05.868Z,5.00
2018-07-16T14:32:33.350Z,5.20
2018-07-16T14:35:01.960Z,4.20
2018-07-16T14:37:30.110Z,3.00
2018-07-16T14:39:57.545Z,5.20
2018-07-16T14:42:25.035Z,3.20
2018-07-16T14:44:52.535Z,4.40
2018-07-16T14:47:20.306Z,5.80
2018-07-16T14:49:47.897Z,4.20
2018-07-16T14:52:15.234Z,3.60
2018-07-16T14:54:42.722Z,4.20
2018-07-16T14:57:10.232Z,6.00
2018-07-16T14:59:37.676Z,4.60
2018-07-16T15:02:05.081Z,4.00
2018-07-16T15:04:32.557Z,3.00
2018-07-16T15:07:00.125Z,4.20
2018-07-16T15:09:27.658Z,3.40
2018-07-16T15:11:55.117Z,3.00
2018-07-16T15:14:22.623Z,6.00
2018-07-16T15:16:50.056Z,5.40
2018-07-16T15:19:17.481Z,4.60
2018-07-16T15:21:44.995Z,4.80
2018-07-16T15:24:12.378Z,4.40
2018-07-16T15:26:39.861Z,5.60
2018-07-16T15:29:07.302Z,4.20
2018-07-16T15:31:35.088Z,4.20
2018-07-16T15:34:02.415Z,3.80
2018-07-16T15:36:29.884Z,4.00
2018-07-16T15:38:57.351Z,5.20
2018-07-16T15:41:24.835Z,3.80
2018-07-16T15:43:52.274Z,4.20
2018-07-16T15:46:19.757Z,3.20
2018-07-16T15:48:48.020Z,4.20
2018-07-16T15:51:15.452Z,3.60
2018-07-16T15:53:42.960Z,3.80
2018-07-16T15:56:10.383Z,4.40
2018-07-16T15:58:37.837Z,3.80
2018-07-16T16:01:05.502Z,6.00
2018-07-16T16:03:32.957Z,5.20
2018-07-16T16:06:00.470Z,5.20
2018-07-16T16:08:27.867Z,4.40
2018-07-16T16:10:55.341Z,5.40
2018-07-16T16:13:22.794Z,4.20
2018-07-16T16:15:50.248Z,3.40
2018-07-16T16:18:17.702Z,4.60
2018-07-16T16:20:45.150Z,4.60
2018-07-16T16:23:12.680Z,4.20
2018-07-16T16:25:40.062Z,3.20
2018-07-16T16:28:07.509Z,4.20
2018-07-16T16:30:35.039Z,1.00
2018-07-16T16:33:04.119Z,4.20
2018-07-16T16:35:31.546Z,3.00
2018-07-16T16:37:59.080Z,4.20
2018-07-16T16:40:26.487Z,2.40
2018-07-16T16:42:53.916Z,3.00
2018-07-16T16:45:21.392Z,5.00
2018-07-16T16:47:48.826Z,4.20
2018-07-16T16:51:19.059Z,4.80
2018-07-16T16:53:46.405Z,2.60
2018-07-16T16:56:13.906Z,3.40
2018-07-16T16:58:41.359Z,6.00
2018-07-16T17:01:08.777Z,3.00
2018-07-16T17:03:36.274Z,4.20
2018-07-16T17:06:03.729Z,3.80
2018-07-16T17:08:31.147Z,4.20
2018-07-16T17:10:58.601Z,4.20
2018-07-16T17:13:26.046Z,2.80
2018-07-16T17:15:57.610Z,3.00
2018-07-16T17:18:27.178Z,3.60
2018-07-16T17:21:13.165Z,4.20
2018-07-16T17:23:40.670Z,5.00
2018-07-16T17:26:08.169Z,2.60
2018-07-16T17:28:43.983Z,4.20
2018-07-16T17:31:11.470Z,4.20
2018-07-16T17:33:38.877Z,3.60
2018-07-16T17:36:06.343Z,4.20
2018-07-16T17:38:33.803Z,4.40
2018-07-16T17:41:01.291Z,3.20
2018-07-16T17:43:28.710Z,4.20
2018-07-16T17:45:56.273Z,4.20
2018-07-16T17:48:23.633Z,4.40
2018-07-16T17:50:51.079Z,4.20
2018-07-16T17:53:18.804Z,3.00
2018-07-16T17:55:46.252Z,4.20
2018-07-16T17:58:13.661Z,3.00
2018-07-16T18:00:41.201Z,4.80
2018-07-16T18:03:08.573Z,3.00
2018-07-16T18:05:36.090Z,3.80
2018-07-16T18:08:03.522Z,4.20
2018-07-16T18:10:30.938Z,4.40
2018-07-16T18:12:59.575Z,5.60
2018-07-16T18:15:27.104Z,3.00
2018-07-16T18:17:54.602Z,3.00
2018-07-16T18:20:22.762Z,4.00
2018-07-16T18:22:50.289Z,4.40
2018-07-16T18:25:17.859Z,3.60
2018-07-16T18:27:45.411Z,3.60
2018-07-16T18:30:12.881Z,3.80
2018-07-16T18:32:40.326Z,3.20
2018-07-16T18:35:08.837Z,4.00
2018-07-16T18:37:36.320Z,1.00
2018-07-16T18:40:04.224Z,4.40
2018-07-16T18:42:31.650Z,3.20
2018-07-16T18:44:59.052Z,6.00
2018-07-16T18:47:26.501Z,6.00
2018-07-16T18:49:53.945Z,7.40
2018-07-16T18:52:21.418Z,9.80
2018-07-16T18:54:48.892Z,12.80
2018-07-16T18:57:16.356Z,9.80
2018-07-16T18:59:43.783Z,12.00
2018-07-16T19:02:11.239Z,10.00
2018-07-16T19:04:38.768Z,13.80
2018-07-16T19:07:06.158Z,14.00
2018-07-16T19:09:33.617Z,15.00
2018-07-16T19:12:01.078Z,12.80
2018-07-16T19:14:29.155Z,11.60
2018-07-16T19:16:56.593Z,10.80
2018-07-16T19:19:24.070Z,11.20
2018-07-16T19:21:51.507Z,12.20
2018-07-16T19:24:18.981Z,10.20
2018-07-16T19:26:46.433Z,9.00
2018-07-16T19:29:13.870Z,7.20
2018-07-16T19:31:41.394Z,8.40
2018-07-16T19:34:08.790Z,7.40
2018-07-16T19:36:36.263Z,7.00
2018-07-16T19:39:05.984Z,6.00
2018-07-16T19:41:33.422Z,6.40
2018-07-16T19:44:00.891Z,4.80
2018-07-16T19:46:28.310Z,3.80
2018-07-16T19:48:55.797Z,6.00
2018-07-16T19:51:23.237Z,6.80
2018-07-16T19:53:50.715Z,5.60
2018-07-16T19:56:18.154Z,5.60
2018-07-16T19:58:45.601Z,6.00
2018-07-16T20:01:13.097Z,6.00
2018-07-16T20:03:40.525Z,4.20
2018-07-16T20:06:08.029Z,6.20
2018-07-16T20:08:35.450Z,7.00
2018-07-16T20:11:02.924Z,5.40
2018-07-16T20:13:30.510Z,7.00
2018-07-16T20:15:57.997Z,7.20
2018-07-16T20:18:25.463Z,6.00
2018-07-16T20:20:53.468Z,6.00
2018-07-16T20:23:20.838Z,6.00
2018-07-16T20:25:48.484Z,6.00
2018-07-16T20:28:16.018Z,7.00
2018-07-16T20:30:43.389Z,7.00
2018-07-16T20:33:10.829Z,6.00
2018-07-16T20:35:38.277Z,6.40
2018-07-16T20:38:05.829Z,7.00
2018-07-16T20:40:33.226Z,7.00
2018-07-16T20:43:00.650Z,9.40
2018-07-16T20:45:28.138Z,7.20
2018-07-16T20:47:55.602Z,7.80
2018-07-16T20:50:23.036Z,5.80
2018-07-16T20:52:50.494Z,6.00
2018-07-16T20:55:17.970Z,6.00
2018-07-16T20:57:45.414Z,6.00
2018-07-16T21:00:12.932Z,6.40
2018-07-16T21:02:40.350Z,5.80
2018-07-16T21:05:07.812Z,6.60
2018-07-16T21:07:35.217Z,6.40
2018-07-16T21:10:02.942Z,5.80
2018-07-16T21:12:30.382Z,6.60
2018-07-16T21:14:57.804Z,6.40
2018-07-16T21:17:25.275Z,7.00
2018-07-16T21:19:52.731Z,6.40
2018-07-16T21:22:21.045Z,6.20
2018-07-16T21:24:48.485Z,6.20
2018-07-16T21:27:15.941Z,5.80
2018-07-16T21:29:43.403Z,7.00
2018-07-16T21:32:11.025Z,5.80
2018-07-16T21:34:39.537Z,6.00
2018-07-16T21:37:06.981Z,6.60
2018-07-16T21:39:34.425Z,6.40
2018-07-16T21:42:01.934Z,6.40
2018-07-16T21:44:29.337Z,6.00
2018-07-16T21:46:56.814Z,5.00
2018-07-16T21:49:24.295Z,6.60
2018-07-16T21:51:51.752Z,6.80
2018-07-16T21:54:19.182Z,5.40
2018-07-16T21:56:46.623Z,7.00
2018-07-16T21:59:14.089Z,7.00
2018-07-16T22:01:41.551Z,5.20
2018-07-16T22:04:08.994Z,7.00
2018-07-16T22:06:36.469Z,9.00
2018-07-16T22:09:04.670Z,7.20
2018-07-16T22:11:32.004Z,7.20
2018-07-16T22:13:59.438Z,8.40
2018-07-16T22:16:26.944Z,8.40
2018-07-16T22:18:54.434Z,5.80
2018-07-16T22:21:21.821Z,9.00
2018-07-16T22:23:49.283Z,7.20
2018-07-16T22:26:16.741Z,7.20
2018-07-16T22:28:44.230Z,7.40
2018-07-16T22:31:11.649Z,7.20
2018-07-16T22:33:39.121Z,9.20
2018-07-16T22:36:06.586Z,6.40
2018-07-16T22:38:34.012Z,7.80
2018-07-16T22:41:03.967Z,6.80
2018-07-16T22:43:31.383Z,8.20
2018-07-16T22:46:00.364Z,9.00
2018-07-16T22:48:28.635Z,7.80
2018-07-16T22:50:56.191Z,7.40
2018-07-16T22:53:24.440Z,7.80
2018-07-16T22:55:52.283Z,7.40
2018-07-16T22:58:19.662Z,7.40
2018-07-16T23:00:47.074Z,6.00
2018-07-16T23:03:17.857Z,7.80
2018-07-16T23:05:45.300Z,7.80
2018-07-16T23:08:16.210Z,6.80
2018-07-16T23:10:44.470Z,7.00
2018-07-16T23:13:14.619Z,7.00
2018-07-16T23:15:42.645Z,7.00
2018-07-16T23:18:10.168Z,7.00
2018-07-16T23:20:37.719Z,6.00
2018-07-16T23:23:05.118Z,6.40
2018-07-16T23:25:32.507Z,8.60
2018-07-16T23:28:00.019Z,6.00
2018-07-16T23:30:27.481Z,6.00
2018-07-16T23:32:54.889Z,6.00
2018-07-16T23:35:22.349Z,9.20
2018-07-16T23:37:49.769Z,5.80
2018-07-16T23:40:17.249Z,8.20
2018-07-16T23:42:44.818Z,6.20
2018-07-16T23:45:12.154Z,7.00
2018-07-16T23:47:39.454Z,6.00
2018-07-16T23:50:06.904Z,7.80
2018-07-16T23:52:34.345Z,7.40
2018-07-16T23:55:01.817Z,6.00
2018-07-16T23:57:29.251Z,7.00
2018-07-16T23:59:56.718Z,6.40
